Terminal Aerodrome Forecast
Issued by NWS Sterling, VA

Current Version | Previous Version | Text Only | Print | Product List | Glossary Off
Versions: 1 2 3 4 5 6 7 8 9 10 11 12 13 14 15 16 17 18 19 20 21 22 23 24 25 26 27

000
FTUS41 KLWX 100900 AAB
TAFIAD
TAF AMD
KIAD 100958Z 1010/1112 VRB03KT 2SM BR FEW008 SCT130
     FM101100 36004KT P6SM FEW050 SCT130
     FM101500 02004KT P6SM VCTS FEW050CB SCT130
     FM101700 16006KT P6SM VCTS BKN050CB BKN130=

USA.gov is the U.S. government's official web portal to all federal, state and local government web resources and services.